createdAt,value
2019-03-26T00:02:23.600Z,5.50
2019-03-26T00:04:51.949Z,5.50
2019-03-26T00:07:20.206Z,5.40
2019-03-26T00:09:49.728Z,5.40
2019-03-26T00:12:18.132Z,5.40
2019-03-26T00:14:46.448Z,5.40
2019-03-26T00:17:14.617Z,5.40
2019-03-26T00:19:42.898Z,5.40
2019-03-26T00:22:17.209Z,5.30
2019-03-26T00:24:45.776Z,5.30
2019-03-26T00:27:14.100Z,5.30
2019-03-26T00:29:42.589Z,5.20
2019-03-26T00:32:10.794Z,5.20
2019-03-26T00:34:39.201Z,5.20
2019-03-26T00:37:07.924Z,5.10
2019-03-26T00:39:36.211Z,5.10
2019-03-26T00:42:04.779Z,5.10
2019-03-26T00:44:33.125Z,5.10
2019-03-26T00:47:01.466Z,5.00
2019-03-26T00:49:29.771Z,5.00
2019-03-26T00:51:58.096Z,5.00
2019-03-26T00:54:26.382Z,5.10
2019-03-26T00:56:54.646Z,5.00
2019-03-26T00:59:23.068Z,5.00
2019-03-26T01:01:51.290Z,5.10
2019-03-26T01:04:31.802Z,5.00
2019-03-26T01:06:50.007Z,5.00
2019-03-26T01:09:18.209Z,5.00
2019-03-26T01:11:46.527Z,5.00
2019-03-26T01:14:14.929Z,5.00
2019-03-26T01:16:43.262Z,5.10
2019-03-26T01:19:11.548Z,5.10
2019-03-26T01:21:39.720Z,5.20
2019-03-26T01:24:08.040Z,5.20
2019-03-26T01:26:36.385Z,5.20
2019-03-26T01:29:04.777Z,5.20
2019-03-26T01:31:33.120Z,5.10
2019-03-26T01:34:01.526Z,5.10
2019-03-26T01:36:29.858Z,5.10
2019-03-26T01:38:58.287Z,5.10
2019-03-26T01:41:26.550Z,5.10
2019-03-26T01:43:55.809Z,5.00
2019-03-26T01:46:24.125Z,5.00
2019-03-26T01:48:52.309Z,5.00
2019-03-26T01:51:20.632Z,4.90
2019-03-26T01:53:48.960Z,4.80
2019-03-26T01:56:17.352Z,4.80
2019-03-26T01:58:45.622Z,4.80
2019-03-26T02:01:13.843Z,4.70
2019-03-26T02:03:42.093Z,4.70
2019-03-26T02:06:10.422Z,4.70
2019-03-26T02:08:38.696Z,4.60
2019-03-26T02:11:07.008Z,4.60
2019-03-26T02:13:35.326Z,4.50
2019-03-26T02:16:03.683Z,4.50
2019-03-26T02:18:32.244Z,4.40
2019-03-26T02:21:00.909Z,4.40
2019-03-26T02:23:29.142Z,4.40
2019-03-26T02:26:01.276Z,4.40
2019-03-26T02:28:29.575Z,4.40
2019-03-26T02:30:57.840Z,4.40
2019-03-26T02:33:26.153Z,4.40
2019-03-26T02:35:54.432Z,4.30
2019-03-26T02:38:23.577Z,4.30
2019-03-26T02:40:52.012Z,4.30
2019-03-26T02:43:20.385Z,4.30
2019-03-26T02:45:48.790Z,4.20
2019-03-26T02:48:17.127Z,4.30
2019-03-26T02:50:45.433Z,4.20
2019-03-26T02:53:13.669Z,4.20
2019-03-26T02:55:41.965Z,4.20
2019-03-26T02:58:13.258Z,4.20
2019-03-26T03:00:41.665Z,4.20
2019-03-26T03:03:10.036Z,4.20
2019-03-26T03:05:38.583Z,4.20
2019-03-26T03:08:09.168Z,4.20
2019-03-26T03:10:37.810Z,4.10
2019-03-26T03:13:06.236Z,4.10
2019-03-26T03:15:34.622Z,4.10
2019-03-26T03:18:02.915Z,4.10
2019-03-26T03:20:31.305Z,4.10
2019-03-26T03:23:00.242Z,4.10
2019-03-26T03:25:28.474Z,4.00
2019-03-26T03:27:56.931Z,4.00
2019-03-26T03:30:25.277Z,3.90
2019-03-26T03:32:53.497Z,3.90
2019-03-26T03:35:21.711Z,3.90
2019-03-26T03:37:50.053Z,3.90
2019-03-26T03:40:18.367Z,3.80
2019-03-26T03:42:46.616Z,3.80
2019-03-26T03:45:20.495Z,3.80
2019-03-26T03:47:48.922Z,3.70
2019-03-26T03:50:17.311Z,3.70
2019-03-26T03:52:46.362Z,3.70
2019-03-26T03:55:14.526Z,3.70
2019-03-26T03:57:44.304Z,3.60
2019-03-26T04:00:31.644Z,3.70
2019-03-26T04:03:00.004Z,3.70
2019-03-26T04:05:28.385Z,3.60
2019-03-26T04:07:56.837Z,3.50
2019-03-26T04:10:25.142Z,3.50
2019-03-26T04:12:53.516Z,3.40
2019-03-26T04:15:21.964Z,3.40
2019-03-26T04:17:50.280Z,3.40
2019-03-26T04:20:18.533Z,3.40
2019-03-26T04:22:46.858Z,3.30
2019-03-26T04:25:27.108Z,3.30
2019-03-26T04:27:58.148Z,3.30
2019-03-26T04:30:30.666Z,3.20
2019-03-26T04:33:01.638Z,3.20
2019-03-26T04:35:32.544Z,3.20
2019-03-26T04:38:03.391Z,3.20
2019-03-26T04:40:34.214Z,3.10
2019-03-26T04:43:05.194Z,3.10
2019-03-26T04:45:36.135Z,3.10
2019-03-26T04:48:07.283Z,3.10
2019-03-26T04:50:38.163Z,3.10
2019-03-26T04:53:09.221Z,3.10
2019-03-26T04:55:40.155Z,3.10
2019-03-26T04:58:11.255Z,3.10
2019-03-26T05:00:44.804Z,3.10
2019-03-26T05:03:15.767Z,3.10
2019-03-26T05:05:46.703Z,3.10
2019-03-26T05:08:17.679Z,3.10
2019-03-26T05:10:49.476Z,3.20
2019-03-26T05:13:20.524Z,3.10
2019-03-26T05:15:51.765Z,3.10
2019-03-26T05:18:22.763Z,3.10
2019-03-26T05:20:53.650Z,3.20
2019-03-26T05:23:24.634Z,3.10
2019-03-26T05:25:55.622Z,3.20
2019-03-26T05:28:26.565Z,3.20
2019-03-26T05:30:57.507Z,3.20
2019-03-26T05:33:28.639Z,3.30
2019-03-26T05:35:59.605Z,3.30
2019-03-26T05:38:30.680Z,3.30
2019-03-26T05:41:01.715Z,3.30
2019-03-26T05:43:32.707Z,3.30
2019-03-26T05:46:04.163Z,3.30
2019-03-26T05:48:35.340Z,3.30
2019-03-26T05:51:06.342Z,3.30
2019-03-26T05:53:37.590Z,3.30
2019-03-26T05:56:08.645Z,3.30
2019-03-26T05:58:39.666Z,3.30
2019-03-26T06:01:10.933Z,3.40
2019-03-26T06:03:42.146Z,3.40
2019-03-26T06:06:13.286Z,3.40
2019-03-26T06:08:44.458Z,3.40
2019-03-26T06:11:15.557Z,3.50
2019-03-26T06:13:46.590Z,3.50
2019-03-26T06:16:17.593Z,3.50
2019-03-26T06:18:50.032Z,3.60
2019-03-26T06:21:20.925Z,3.60
2019-03-26T06:23:53.697Z,3.60
2019-03-26T06:26:24.858Z,3.70
2019-03-26T06:29:02.270Z,3.80
2019-03-26T06:31:33.309Z,3.80
2019-03-26T06:34:05.893Z,3.90
2019-03-26T06:36:37.071Z,4.00
2019-03-26T06:39:09.689Z,4.10
2019-03-26T06:41:40.691Z,4.30
2019-03-26T06:44:11.907Z,4.50
2019-03-26T06:46:42.806Z,4.80
2019-03-26T06:49:14.126Z,4.90
2019-03-26T06:51:45.151Z,4.90
2019-03-26T06:54:16.455Z,4.90
2019-03-26T06:56:47.721Z,5.00
2019-03-26T06:59:18.942Z,5.00
2019-03-26T07:01:50.057Z,5.00
2019-03-26T07:04:21.174Z,5.00
2019-03-26T07:06:52.120Z,5.00
2019-03-26T07:09:23.217Z,5.10
2019-03-26T07:11:54.233Z,5.20
2019-03-26T07:14:25.412Z,5.30
2019-03-26T07:16:56.488Z,5.40
2019-03-26T07:19:27.523Z,5.50
2019-03-26T07:21:58.573Z,5.40
2019-03-26T07:24:29.822Z,5.50
2019-03-26T07:27:00.899Z,5.60
2019-03-26T07:29:31.904Z,5.70
2019-03-26T07:32:03.017Z,5.70
2019-03-26T07:34:34.178Z,5.70
2019-03-26T07:37:05.244Z,5.70
2019-03-26T07:39:38.999Z,5.80
2019-03-26T07:42:09.240Z,5.90
2019-03-26T07:44:40.422Z,5.90
2019-03-26T07:47:11.446Z,5.90
2019-03-26T07:49:49.080Z,5.90
2019-03-26T07:52:20.162Z,6.00
2019-03-26T07:54:52.235Z,6.00
2019-03-26T07:57:23.289Z,6.10
2019-03-26T07:59:54.309Z,6.10
2019-03-26T08:02:25.426Z,6.00
2019-03-26T08:04:56.691Z,5.90
2019-03-26T08:07:27.649Z,5.80
2019-03-26T08:09:58.681Z,5.70
2019-03-26T08:12:32.619Z,5.70
2019-03-26T08:15:03.829Z,5.60
2019-03-26T08:17:35.088Z,5.80
2019-03-26T08:20:06.754Z,6.00
2019-03-26T08:22:38.006Z,6.20
2019-03-26T08:25:09.469Z,6.50
2019-03-26T08:27:40.763Z,6.70
2019-03-26T08:30:12.044Z,6.90
2019-03-26T08:32:43.072Z,6.90
2019-03-26T08:35:15.503Z,6.80
2019-03-26T08:37:46.589Z,6.90
2019-03-26T08:40:17.940Z,6.70
2019-03-26T08:42:48.996Z,6.70
2019-03-26T08:45:20.238Z,6.90
2019-03-26T08:47:51.334Z,7.10
2019-03-26T08:50:22.748Z,7.20
2019-03-26T08:52:53.772Z,7.30
2019-03-26T08:55:24.867Z,7.40
2019-03-26T08:57:55.884Z,7.60
2019-03-26T09:00:26.965Z,7.70
2019-03-26T09:02:57.922Z,7.70
2019-03-26T09:05:29.205Z,7.80
2019-03-26T09:08:00.320Z,7.90
2019-03-26T09:10:31.505Z,7.90
2019-03-26T09:13:02.639Z,8.10
2019-03-26T09:15:33.848Z,8.20
2019-03-26T09:18:05.024Z,8.40
2019-03-26T09:20:35.976Z,8.50
2019-03-26T09:23:07.015Z,8.30
2019-03-26T09:25:38.052Z,8.00
2019-03-26T09:28:09.049Z,7.80
2019-03-26T09:30:40.176Z,7.50
2019-03-26T09:33:11.269Z,7.30
2019-03-26T09:35:42.371Z,7.20
2019-03-26T09:38:14.335Z,7.20
2019-03-26T09:40:45.576Z,7.20
2019-03-26T09:43:16.700Z,7.30
2019-03-26T09:45:47.921Z,7.30
2019-03-26T09:48:19.101Z,7.40
2019-03-26T09:50:50.256Z,7.60
2019-03-26T09:53:21.449Z,7.70
2019-03-26T09:55:52.962Z,7.70
2019-03-26T09:58:24.206Z,7.70
2019-03-26T10:00:55.310Z,7.80
2019-03-26T10:03:26.416Z,8.10
2019-03-26T10:05:58.350Z,8.30
2019-03-26T10:08:29.558Z,8.20
2019-03-26T10:11:00.989Z,8.10
2019-03-26T10:13:32.027Z,8.30
2019-03-26T10:16:03.103Z,8.30
2019-03-26T10:18:34.221Z,8.30
2019-03-26T10:21:05.499Z,8.10
2019-03-26T10:23:36.563Z,8.30
2019-03-26T10:26:07.683Z,8.40
2019-03-26T10:28:38.678Z,8.30
2019-03-26T10:31:09.835Z,8.20
2019-03-26T10:33:40.943Z,8.10
2019-03-26T10:36:12.085Z,8.20
2019-03-26T10:38:43.100Z,8.40
2019-03-26T10:41:14.215Z,8.30
2019-03-26T10:43:45.230Z,8.40
2019-03-26T10:46:16.796Z,8.40
2019-03-26T10:48:47.818Z,8.30
2019-03-26T10:51:18.992Z,8.20
2019-03-26T10:53:50.067Z,8.30
2019-03-26T10:56:21.206Z,8.40
2019-03-26T10:58:52.289Z,8.30
2019-03-26T11:01:24.425Z,8.40
2019-03-26T11:03:55.464Z,8.30
2019-03-26T11:06:29.854Z,8.20
2019-03-26T11:09:00.974Z,8.40
2019-03-26T11:11:33.472Z,8.40
2019-03-26T11:14:04.482Z,8.20
2019-03-26T11:16:35.483Z,8.20
2019-03-26T11:19:06.500Z,8.00
2019-03-26T11:21:39.135Z,7.80
2019-03-26T11:24:10.216Z,7.90
2019-03-26T11:26:41.245Z,8.00
2019-03-26T11:29:12.263Z,8.00
2019-03-26T11:31:43.344Z,8.00
2019-03-26T11:34:14.320Z,8.10
2019-03-26T11:36:45.516Z,8.20
2019-03-26T11:39:16.495Z,8.20
2019-03-26T11:41:47.508Z,8.20
2019-03-26T11:44:18.421Z,8.20
2019-03-26T11:46:51.854Z,8.20
2019-03-26T11:49:22.958Z,8.30
2019-03-26T11:51:57.347Z,8.40
2019-03-26T11:54:28.344Z,8.60
2019-03-26T11:57:00.675Z,8.90
2019-03-26T11:59:31.880Z,9.10
2019-03-26T12:02:03.651Z,9.10
2019-03-26T12:04:34.693Z,9.20
2019-03-26T12:07:06.847Z,9.20
2019-03-26T12:09:46.271Z,9.20
2019-03-26T12:12:10.755Z,9.10
2019-03-26T12:14:41.833Z,9.10
2019-03-26T12:17:15.082Z,8.90
2019-03-26T12:19:46.264Z,8.90
2019-03-26T12:22:17.488Z,8.90
2019-03-26T12:24:48.622Z,9.00
2019-03-26T12:27:19.714Z,9.00
2019-03-26T12:29:54.747Z,9.10
2019-03-26T12:32:27.618Z,9.20
2019-03-26T12:34:58.654Z,9.50
2019-03-26T12:37:29.906Z,9.60
2019-03-26T12:40:01.164Z,9.70
2019-03-26T12:42:32.332Z,9.70
2019-03-26T12:45:06.658Z,9.80
2019-03-26T12:47:36.402Z,9.80
2019-03-26T12:50:07.815Z,9.80
2019-03-26T12:52:39.568Z,9.90
2019-03-26T12:55:10.874Z,9.80
2019-03-26T12:57:41.945Z,9.30
2019-03-26T13:00:13.105Z,9.30
2019-03-26T13:02:44.031Z,9.20
2019-03-26T13:05:15.116Z,8.90
2019-03-26T13:07:46.339Z,8.60
2019-03-26T13:10:18.253Z,8.70
2019-03-26T13:12:49.369Z,8.90
2019-03-26T13:15:20.478Z,9.10
2019-03-26T13:17:52.002Z,9.10
2019-03-26T13:20:23.251Z,9.00
2019-03-26T13:22:54.480Z,9.50
2019-03-26T13:25:25.506Z,9.60
2019-03-26T13:27:56.507Z,9.80
2019-03-26T13:30:27.545Z,9.90
2019-03-26T13:32:58.554Z,9.80
2019-03-26T13:35:29.623Z,9.70
2019-03-26T13:38:00.691Z,9.70
2019-03-26T13:40:32.291Z,9.50
2019-03-26T13:43:03.361Z,9.50
2019-03-26T13:45:34.600Z,9.60
2019-03-26T13:48:05.591Z,9.60
2019-03-26T13:50:36.702Z,9.30
2019-03-26T13:53:08.136Z,9.20
2019-03-26T13:55:39.300Z,9.30
2019-03-26T13:58:10.390Z,9.40
2019-03-26T14:00:41.779Z,9.30
2019-03-26T14:03:13.044Z,9.30
2019-03-26T14:05:44.250Z,9.30
2019-03-26T14:08:15.328Z,9.30
2019-03-26T14:10:46.635Z,9.30
2019-03-26T14:13:18.382Z,9.30
2019-03-26T14:15:50.570Z,9.40
2019-03-26T14:18:21.799Z,9.40
2019-03-26T14:20:53.066Z,9.30
2019-03-26T14:23:24.098Z,9.30
2019-03-26T14:25:55.137Z,9.30
2019-03-26T14:28:26.286Z,9.40
2019-03-26T14:30:57.583Z,9.30
2019-03-26T14:33:28.645Z,9.40
2019-03-26T14:35:59.647Z,9.50
2019-03-26T14:38:30.864Z,9.70
2019-03-26T14:41:01.939Z,9.70
2019-03-26T14:43:33.196Z,9.80
2019-03-26T14:46:04.354Z,9.80
2019-03-26T14:48:35.561Z,9.80
2019-03-26T14:51:07.497Z,9.90
2019-03-26T14:53:39.283Z,10.10
2019-03-26T14:56:10.265Z,10.20
2019-03-26T14:58:41.528Z,10.10
2019-03-26T15:01:12.670Z,10.10
2019-03-26T15:03:44.354Z,10.20
2019-03-26T15:06:15.479Z,10.20
2019-03-26T15:08:48.057Z,10.00
2019-03-26T15:11:19.121Z,10.00
2019-03-26T15:13:51.030Z,10.00
2019-03-26T15:16:22.108Z,10.00
2019-03-26T15:18:53.368Z,9.90
2019-03-26T15:21:24.279Z,10.00
2019-03-26T15:23:55.416Z,10.00
2019-03-26T15:26:26.486Z,10.00
2019-03-26T15:28:58.003Z,10.00
2019-03-26T15:31:29.048Z,10.00
2019-03-26T15:34:02.181Z,9.80
2019-03-26T15:36:32.941Z,9.60
2019-03-26T15:39:05.623Z,9.40
2019-03-26T15:41:37.172Z,9.40
2019-03-26T15:44:08.618Z,9.30
2019-03-26T15:46:39.833Z,9.20
2019-03-26T15:49:11.043Z,9.20
2019-03-26T15:51:42.345Z,9.20
2019-03-26T15:54:13.466Z,9.30
2019-03-26T15:56:44.577Z,9.20
2019-03-26T15:59:15.856Z,9.20
2019-03-26T16:01:47.856Z,9.30
2019-03-26T16:04:18.978Z,9.20
2019-03-26T16:06:50.186Z,9.30
2019-03-26T16:09:21.540Z,9.30
2019-03-26T16:12:02.000Z,9.40
2019-03-26T16:14:33.086Z,9.40
2019-03-26T16:17:04.564Z,9.50
2019-03-26T16:19:36.654Z,9.50
2019-03-26T16:22:08.513Z,9.60
2019-03-26T16:24:39.742Z,9.60
2019-03-26T16:27:14.456Z,9.80
2019-03-26T16:29:45.546Z,9.80
2019-03-26T16:32:16.558Z,9.70
2019-03-26T16:34:47.650Z,9.70
2019-03-26T16:37:18.807Z,9.60
2019-03-26T16:39:49.879Z,9.50
2019-03-26T16:42:24.779Z,9.50
2019-03-26T16:44:56.025Z,9.40
2019-03-26T16:47:27.025Z,9.30
2019-03-26T16:49:58.153Z,9.30
2019-03-26T16:52:29.107Z,9.20
2019-03-26T16:55:00.352Z,9.20
2019-03-26T16:57:32.867Z,9.10
2019-03-26T17:00:04.167Z,9.10
2019-03-26T17:02:35.488Z,9.10
2019-03-26T17:05:07.426Z,9.00
2019-03-26T17:07:38.670Z,9.00
2019-03-26T17:10:10.160Z,8.90
2019-03-26T17:12:41.238Z,8.90
2019-03-26T17:15:12.400Z,8.90
2019-03-26T17:17:43.768Z,8.90
2019-03-26T17:20:14.906Z,8.80
2019-03-26T17:22:46.007Z,8.80
2019-03-26T17:25:17.049Z,8.80
2019-03-26T17:27:48.040Z,8.70
2019-03-26T17:30:19.387Z,8.70
2019-03-26T17:32:50.538Z,8.70
2019-03-26T17:35:22.445Z,8.70
2019-03-26T17:37:59.603Z,8.60
2019-03-26T17:40:27.051Z,8.60
2019-03-26T17:42:58.168Z,8.60
2019-03-26T17:45:29.300Z,8.60
2019-03-26T17:48:00.573Z,8.60
2019-03-26T17:50:32.982Z,8.60
2019-03-26T17:53:03.868Z,8.50
2019-03-26T17:55:35.453Z,8.60
2019-03-26T17:58:06.579Z,8.60
2019-03-26T18:00:43.217Z,8.60
2019-03-26T18:03:25.646Z,8.50
2019-03-26T18:05:48.076Z,8.50
2019-03-26T18:08:19.229Z,8.50
2019-03-26T18:10:52.975Z,8.50
2019-03-26T18:13:24.128Z,8.50
2019-03-26T18:15:55.161Z,8.50
2019-03-26T18:18:27.685Z,8.40
2019-03-26T18:21:00.426Z,8.40
2019-03-26T18:23:34.576Z,8.40
2019-03-26T18:26:06.447Z,8.30
2019-03-26T18:28:37.571Z,8.30
2019-03-26T18:31:08.651Z,8.20
2019-03-26T18:33:39.727Z,8.20
2019-03-26T18:36:10.833Z,8.20
2019-03-26T18:38:42.032Z,8.20
2019-03-26T18:41:15.210Z,8.20
2019-03-26T18:44:02.461Z,8.20
2019-03-26T18:46:33.793Z,8.20
2019-03-26T18:49:04.984Z,8.10
2019-03-26T18:51:36.332Z,8.10
2019-03-26T18:54:07.750Z,8.10
2019-03-26T18:56:39.528Z,8.00
2019-03-26T18:59:11.477Z,7.90
2019-03-26T19:01:42.836Z,7.90
2019-03-26T19:04:14.794Z,7.80
2019-03-26T19:06:46.013Z,7.80
2019-03-26T19:09:17.092Z,7.80
2019-03-26T19:11:48.120Z,7.70
2019-03-26T19:14:24.770Z,7.70
2019-03-26T19:17:01.847Z,7.60
2019-03-26T19:19:36.536Z,7.60
2019-03-26T19:22:09.714Z,7.60
2019-03-26T19:24:42.571Z,7.60
2019-03-26T19:27:16.714Z,7.60
2019-03-26T19:29:49.610Z,7.60
2019-03-26T19:32:22.798Z,7.60
2019-03-26T19:34:54.157Z,7.50
2019-03-26T19:37:25.402Z,7.50
2019-03-26T19:39:56.529Z,7.50
2019-03-26T19:42:27.551Z,7.40
2019-03-26T19:44:58.694Z,7.40
2019-03-26T19:47:30.045Z,7.40
2019-03-26T19:50:01.073Z,7.40
2019-03-26T19:52:32.337Z,7.50
2019-03-26T19:55:07.023Z,7.50
2019-03-26T19:57:38.135Z,7.50
2019-03-26T20:00:10.733Z,7.50
2019-03-26T20:02:42.008Z,7.50
2019-03-26T20:05:13.066Z,7.50
2019-03-26T20:07:44.170Z,7.50
2019-03-26T20:10:15.628Z,7.50
2019-03-26T20:12:46.631Z,7.50
2019-03-26T20:15:18.224Z,7.50
2019-03-26T20:17:49.806Z,7.40
2019-03-26T20:20:21.091Z,7.40
2019-03-26T20:22:52.298Z,7.40
2019-03-26T20:25:23.875Z,7.40
2019-03-26T20:27:56.208Z,7.40
2019-03-26T20:30:27.247Z,7.30
2019-03-26T20:32:58.686Z,7.30
2019-03-26T20:35:29.884Z,7.20
2019-03-26T20:38:01.100Z,7.20
2019-03-26T20:40:32.109Z,7.20
2019-03-26T20:43:03.013Z,7.20
2019-03-26T20:45:36.757Z,7.20
2019-03-26T20:48:08.480Z,7.20
2019-03-26T20:50:39.680Z,7.20
2019-03-26T20:53:10.846Z,7.20
2019-03-26T20:55:53.576Z,7.10
2019-03-26T20:58:15.255Z,7.10
2019-03-26T21:00:46.156Z,7.10
2019-03-26T21:03:19.685Z,7.10
2019-03-26T21:05:50.683Z,7.10
2019-03-26T21:08:22.003Z,7.10
2019-03-26T21:10:53.081Z,7.10
2019-03-26T21:13:24.185Z,7.10
2019-03-26T21:15:57.476Z,7.10
2019-03-26T21:18:27.944Z,7.20
2019-03-26T21:20:59.418Z,7.20
2019-03-26T21:23:30.645Z,7.20
2019-03-26T21:26:01.795Z,7.20
2019-03-26T21:28:33.877Z,7.20
2019-03-26T21:31:04.994Z,7.20
2019-03-26T21:33:35.949Z,7.30
2019-03-26T21:36:06.884Z,7.30
2019-03-26T21:38:39.075Z,7.30
2019-03-26T21:41:10.437Z,7.30
2019-03-26T21:43:41.606Z,7.30
2019-03-26T21:46:12.796Z,7.30
2019-03-26T21:48:46.246Z,7.30
2019-03-26T21:51:17.177Z,7.30
2019-03-26T21:53:48.272Z,7.30
2019-03-26T21:56:20.129Z,7.20
2019-03-26T21:58:51.126Z,7.20
2019-03-26T22:01:22.393Z,7.10
2019-03-26T22:03:53.443Z,7.10
2019-03-26T22:06:24.646Z,7.10
2019-03-26T22:08:55.650Z,7.10
2019-03-26T22:11:27.296Z,7.10
2019-03-26T22:13:58.368Z,7.10
2019-03-26T22:16:29.369Z,7.10
2019-03-26T22:19:00.600Z,7.10
2019-03-26T22:21:31.623Z,7.20
2019-03-26T22:24:05.829Z,7.30
2019-03-26T22:26:36.882Z,7.30
2019-03-26T22:29:07.968Z,7.30
2019-03-26T22:31:39.622Z,7.20
2019-03-26T22:34:10.635Z,7.10
2019-03-26T22:36:41.742Z,7.00
2019-03-26T22:39:12.800Z,7.10
2019-03-26T22:41:43.969Z,7.00
2019-03-26T22:44:16.009Z,7.00
2019-03-26T22:46:46.991Z,7.00
2019-03-26T22:49:18.108Z,6.90
2019-03-26T22:51:49.199Z,7.00
2019-03-26T22:54:20.243Z,7.00
2019-03-26T22:56:52.354Z,7.00
2019-03-26T22:59:23.490Z,7.00
2019-03-26T23:01:54.479Z,7.00
2019-03-26T23:04:25.505Z,7.00
2019-03-26T23:06:56.602Z,7.10
2019-03-26T23:09:27.730Z,7.20
2019-03-26T23:11:58.863Z,7.10
2019-03-26T23:14:29.859Z,7.00
2019-03-26T23:17:01.053Z,7.10
2019-03-26T23:19:32.342Z,7.10
2019-03-26T23:22:04.282Z,7.10
2019-03-26T23:24:35.436Z,7.00
2019-03-26T23:27:06.520Z,7.00
2019-03-26T23:29:37.593Z,6.90
2019-03-26T23:32:08.629Z,6.90
2019-03-26T23:34:39.940Z,7.00
2019-03-26T23:37:10.958Z,6.90
2019-03-26T23:39:41.970Z,6.90
2019-03-26T23:42:14.176Z,6.90
2019-03-26T23:44:57.417Z,6.90
2019-03-26T23:47:17.915Z,7.00
2019-03-26T23:49:49.239Z,6.90
2019-03-26T23:52:20.307Z,6.90
2019-03-26T23:54:51.289Z,6.90
2019-03-26T23:57:22.329Z,6.90
2019-03-26T23:59:53.550Z,6.80
